New Orleans, Naval Air Station Joint Reserve Base New Orleans (KNBG)

NameNaval Air Station Joint Reserve Base New Orleans
CityNew Orleans
CountryUnited States
ICAOKNBG
IATANBG
Altitude1 m
CoordinatesGoogle Map
Live Air TrafficLiveATC.net
METARKNBG 091855Z 34011G19KT 10SM OVC018 07/04 A3008 RMK AO2 SLP185 T00720044 $
2018-12-09 18:55:00 Wind: North-Northwest (340°) 5.66 m/s - Visibility: 16093.4 m - Temperature: 7 °C - Dew point: 4 °C - Humidity: 81.4% - Pressure: 1018.63 hPa
Statistics

The table below shows the detailed information of all flights to/from New Orleans, Naval Air Station Joint Reserve Base New Orleans (KNBG).